createdAt,value
2019-03-22T00:01:23.795Z,37.98
2019-03-22T00:03:52.238Z,38.80
2019-03-22T00:06:20.679Z,37.45
2019-03-22T00:08:49.109Z,38.25
2019-03-22T00:11:17.564Z,38.25
2019-03-22T00:13:46.022Z,38.78
2019-03-22T00:16:14.520Z,39.15
2019-03-22T00:18:43.028Z,40.45
2019-03-22T00:21:11.483Z,39.98
2019-03-22T00:23:39.935Z,38.98
2019-03-22T00:26:08.373Z,41.73
2019-03-22T00:28:36.822Z,41.92
2019-03-22T00:31:05.266Z,41.45
2019-03-22T00:33:33.724Z,40.75
2019-03-22T00:36:02.158Z,40.90
2019-03-22T00:38:30.581Z,40.33
2019-03-22T00:40:59.030Z,42.58
2019-03-22T00:43:27.555Z,42.27
2019-03-22T00:45:55.982Z,42.15
2019-03-22T00:48:24.993Z,42.90
2019-03-22T00:50:53.462Z,44.63
2019-03-22T00:53:21.915Z,43.40
2019-03-22T00:55:50.355Z,42.48
2019-03-22T00:58:18.802Z,41.33
2019-03-22T01:00:47.241Z,44.03
2019-03-22T01:03:15.682Z,40.40
2019-03-22T01:05:44.130Z,41.80
2019-03-22T01:08:12.580Z,40.20
2019-03-22T01:10:41.017Z,38.65
2019-03-22T01:13:09.474Z,40.08
2019-03-22T01:15:37.919Z,40.88
2019-03-22T01:18:06.353Z,41.15
2019-03-22T01:20:34.793Z,42.53
2019-03-22T01:23:03.311Z,42.30
2019-03-22T01:25:31.763Z,42.85
2019-03-22T01:28:00.210Z,42.40
2019-03-22T01:30:30.269Z,42.30
2019-03-22T01:32:58.722Z,44.53
2019-03-22T01:35:27.163Z,41.37
2019-03-22T01:37:55.602Z,42.58
2019-03-22T01:40:24.050Z,42.17
2019-03-22T01:42:52.500Z,43.52
2019-03-22T01:45:20.947Z,42.75
2019-03-22T01:47:49.393Z,43.00
2019-03-22T01:50:18.421Z,40.90
2019-03-22T01:52:46.858Z,43.05
2019-03-22T01:55:15.376Z,45.88
2019-03-22T01:57:53.110Z,45.30
2019-03-22T02:00:18.177Z,45.90
2019-03-22T02:02:46.699Z,44.98
2019-03-22T02:05:15.138Z,48.02
2019-03-22T02:07:43.657Z,47.85
2019-03-22T02:10:13.037Z,49.93
2019-03-22T02:12:41.957Z,47.70
2019-03-22T02:15:15.691Z,53.23
2019-03-22T02:17:44.661Z,49.53
2019-03-22T02:20:15.153Z,50.73
2019-03-22T02:22:43.669Z,52.83
2019-03-22T02:25:12.119Z,53.02
2019-03-22T02:27:40.635Z,51.63
2019-03-22T02:30:12.089Z,53.58
2019-03-22T02:32:40.666Z,55.48
2019-03-22T02:35:09.858Z,56.55
2019-03-22T02:37:38.311Z,54.53
2019-03-22T02:40:11.215Z,53.23
2019-03-22T02:42:39.693Z,57.78
2019-03-22T02:45:12.933Z,55.28
2019-03-22T02:47:41.378Z,60.10
2019-03-22T02:50:18.570Z,60.35
2019-03-22T02:52:43.841Z,60.00
2019-03-22T02:55:12.629Z,62.17
2019-03-22T02:57:41.078Z,63.68
2019-03-22T03:00:15.477Z,66.53
2019-03-22T03:02:44.048Z,62.55
2019-03-22T03:05:13.242Z,66.87
2019-03-22T03:07:41.754Z,67.82
2019-03-22T03:10:14.643Z,66.62
2019-03-22T03:12:43.686Z,65.87
2019-03-22T03:15:17.688Z,71.37
2019-03-22T03:17:46.123Z,67.90
2019-03-22T03:20:19.357Z,72.60
2019-03-22T03:22:49.306Z,73.83
2019-03-22T03:25:17.990Z,69.95
2019-03-22T03:27:46.509Z,70.37
2019-03-22T03:30:20.560Z,75.20
2019-03-22T03:32:49.261Z,74.47
2019-03-22T03:35:19.524Z,71.37
2019-03-22T03:37:48.068Z,77.12
2019-03-22T03:40:21.601Z,76.60
2019-03-22T03:42:51.151Z,76.37
2019-03-22T03:45:31.871Z,80.42
2019-03-22T03:48:01.991Z,81.05
2019-03-22T03:50:30.563Z,85.12
2019-03-22T03:52:58.997Z,83.42
2019-03-22T03:55:28.198Z,87.42
2019-03-22T03:57:56.708Z,86.30
2019-03-22T04:00:25.182Z,85.55
2019-03-22T04:02:53.641Z,91.08
2019-03-22T04:05:22.137Z,88.42
2019-03-22T04:07:53.288Z,88.92
2019-03-22T04:10:21.723Z,87.70
2019-03-22T04:12:50.184Z,88.20
2019-03-22T04:15:18.633Z,91.20
2019-03-22T04:17:47.073Z,91.10
2019-03-22T04:20:15.969Z,88.62
2019-03-22T04:22:44.485Z,90.57
2019-03-22T04:25:12.980Z,92.08
2019-03-22T04:27:41.511Z,88.87
2019-03-22T04:30:10.152Z,91.20
2019-03-22T04:32:38.589Z,92.65
2019-03-22T04:35:07.793Z,91.08
2019-03-22T04:37:36.292Z,92.80
2019-03-22T04:40:26.694Z,93.78
2019-03-22T04:42:55.220Z,91.50
2019-03-22T04:45:44.059Z,91.55
2019-03-22T04:48:15.311Z,86.35
2019-03-22T04:50:46.092Z,92.45
2019-03-22T04:53:17.615Z,95.75
2019-03-22T04:55:48.758Z,95.77
2019-03-22T04:58:19.167Z,93.40
2019-03-22T05:00:49.043Z,93.47
2019-03-22T05:03:19.233Z,93.78
2019-03-22T05:05:50.249Z,91.95
2019-03-22T05:08:20.243Z,93.75
2019-03-22T05:10:49.129Z,95.77
2019-03-22T05:13:26.701Z,96.92
2019-03-22T05:15:55.994Z,96.87
2019-03-22T05:18:24.506Z,98.87
2019-03-22T05:20:53.779Z,94.80
2019-03-22T05:23:24.765Z,94.67
2019-03-22T05:25:56.279Z,99.00
2019-03-22T05:28:26.764Z,97.12
2019-03-22T05:31:10.342Z,96.12
2019-03-22T05:33:38.795Z,96.50
2019-03-22T05:36:07.269Z,97.78
2019-03-22T05:38:35.722Z,97.88
2019-03-22T05:41:04.176Z,100.10
2019-03-22T05:43:32.610Z,99.70
2019-03-22T05:46:01.057Z,98.97
2019-03-22T05:48:29.501Z,97.70
2019-03-22T05:50:57.946Z,100.12
2019-03-22T05:53:26.385Z,95.55
2019-03-22T05:55:54.835Z,95.45
2019-03-22T05:58:23.295Z,90.38
2019-03-22T06:00:51.727Z,87.92
2019-03-22T06:03:20.182Z,90.10
2019-03-22T06:05:49.662Z,91.47
2019-03-22T06:08:18.116Z,91.22
2019-03-22T06:10:46.547Z,88.92
2019-03-22T06:13:14.982Z,89.52
2019-03-22T06:15:43.439Z,89.72
2019-03-22T06:18:11.887Z,91.05
2019-03-22T06:20:40.352Z,90.25
2019-03-22T06:23:08.785Z,89.83
2019-03-22T06:25:37.406Z,89.45
2019-03-22T06:28:05.859Z,88.90
2019-03-22T06:30:34.386Z,88.07
2019-03-22T06:33:02.846Z,89.72
2019-03-22T06:35:31.301Z,91.60
2019-03-22T06:37:59.734Z,89.25
2019-03-22T06:40:28.184Z,92.02
2019-03-22T06:42:56.643Z,91.78
2019-03-22T06:45:25.146Z,92.05
2019-03-22T06:47:53.608Z,93.97
2019-03-22T06:50:25.178Z,91.50
2019-03-22T06:52:53.643Z,84.52
2019-03-22T06:55:22.082Z,84.70
2019-03-22T06:57:50.527Z,84.35
2019-03-22T07:00:18.978Z,82.00
2019-03-22T07:02:47.422Z,84.03
2019-03-22T07:05:19.010Z,87.22
2019-03-22T07:07:47.458Z,86.97
2019-03-22T07:10:15.911Z,90.67
2019-03-22T07:12:44.426Z,90.42
2019-03-22T07:15:13.209Z,90.32
2019-03-22T07:17:41.666Z,85.47
2019-03-22T07:20:10.449Z,84.95
2019-03-22T07:22:38.897Z,82.95
2019-03-22T07:25:08.183Z,85.03
2019-03-22T07:27:36.624Z,83.92
2019-03-22T07:30:18.104Z,83.03
2019-03-22T07:32:42.243Z,80.55
2019-03-22T07:35:11.958Z,78.33
2019-03-22T07:37:40.749Z,80.28
2019-03-22T07:40:11.646Z,79.65
2019-03-22T07:42:40.104Z,79.40
2019-03-22T07:45:10.009Z,78.60
2019-03-22T07:47:38.519Z,78.83
2019-03-22T07:50:08.304Z,75.28
2019-03-22T07:52:36.750Z,77.30
2019-03-22T07:55:07.256Z,75.05
2019-03-22T07:57:35.690Z,80.00
2019-03-22T08:00:10.037Z,78.20
2019-03-22T08:02:38.480Z,80.92
2019-03-22T08:05:07.386Z,78.83
2019-03-22T08:07:38.141Z,83.97
2019-03-22T08:10:08.280Z,74.42
2019-03-22T08:12:36.746Z,71.80
2019-03-22T08:15:08.372Z,72.65
2019-03-22T08:17:36.708Z,69.60
2019-03-22T08:20:08.497Z,71.77
2019-03-22T08:22:38.599Z,71.07
2019-03-22T08:25:07.701Z,73.55
2019-03-22T08:27:36.151Z,70.72
2019-03-22T08:30:06.356Z,73.70
2019-03-22T08:32:34.839Z,73.05
2019-03-22T08:35:03.347Z,73.42
2019-03-22T08:37:31.787Z,70.05
2019-03-22T08:40:00.465Z,68.00
2019-03-22T08:42:29.047Z,69.03
2019-03-22T08:44:57.504Z,67.92
2019-03-22T08:47:33.723Z,69.65
2019-03-22T08:49:56.217Z,66.05
2019-03-22T08:52:24.656Z,67.12
2019-03-22T08:54:53.086Z,68.80
2019-03-22T08:57:25.056Z,66.87
2019-03-22T08:59:53.242Z,70.45
2019-03-22T09:02:21.700Z,68.80
2019-03-22T09:04:50.485Z,67.80
2019-03-22T09:07:18.933Z,65.03
2019-03-22T09:09:47.428Z,70.92
2019-03-22T09:12:15.922Z,69.20
2019-03-22T09:14:46.735Z,66.85
2019-03-22T09:17:15.272Z,66.40
2019-03-22T09:19:43.783Z,68.60
2019-03-22T09:22:12.404Z,68.67
2019-03-22T09:24:40.939Z,68.40
2019-03-22T09:27:09.478Z,68.55
2019-03-22T09:29:37.973Z,68.17
2019-03-22T09:32:06.450Z,67.17
2019-03-22T09:34:35.245Z,68.97
2019-03-22T09:37:03.737Z,67.62
2019-03-22T09:39:32.258Z,67.22
2019-03-22T09:42:00.709Z,64.75
2019-03-22T09:44:42.397Z,65.47
2019-03-22T09:46:59.345Z,65.72
2019-03-22T09:49:27.875Z,62.93
2019-03-22T09:51:56.313Z,64.72
2019-03-22T09:54:24.840Z,63.58
2019-03-22T09:56:53.286Z,64.85
2019-03-22T09:59:21.830Z,60.98
2019-03-22T10:01:51.871Z,66.70
2019-03-22T10:04:20.323Z,66.28
2019-03-22T10:06:48.817Z,60.48
2019-03-22T10:09:17.345Z,62.23
2019-03-22T10:11:45.892Z,60.80
2019-03-22T10:14:14.395Z,64.65
2019-03-22T10:16:42.890Z,63.70
2019-03-22T10:19:11.356Z,62.70
2019-03-22T10:21:39.919Z,62.20
2019-03-22T10:24:09.940Z,61.55
2019-03-22T10:26:39.509Z,61.58
2019-03-22T10:29:08.043Z,62.43
2019-03-22T10:31:37.804Z,58.08
2019-03-22T10:34:08.902Z,62.03
2019-03-22T10:36:37.354Z,60.03
2019-03-22T10:39:08.135Z,60.50
2019-03-22T10:41:36.684Z,58.75
2019-03-22T10:44:10.600Z,56.73
2019-03-22T10:46:39.088Z,58.30
2019-03-22T10:49:07.592Z,57.98
2019-03-22T10:51:36.094Z,59.90
2019-03-22T10:54:04.742Z,57.43
2019-03-22T10:56:33.334Z,57.45
2019-03-22T10:59:03.326Z,55.12
2019-03-22T11:01:46.405Z,55.23
2019-03-22T11:04:02.994Z,52.93
2019-03-22T11:06:31.442Z,51.98
2019-03-22T11:09:02.102Z,48.38
2019-03-22T11:11:30.547Z,45.98
2019-03-22T11:13:58.986Z,46.85
2019-03-22T11:16:27.442Z,48.23
2019-03-22T11:18:57.269Z,48.38
2019-03-22T11:21:25.727Z,44.63
2019-03-22T11:23:54.170Z,45.38
2019-03-22T11:26:22.620Z,43.63
2019-03-22T11:28:51.059Z,43.20
2019-03-22T11:31:27.426Z,42.85
2019-03-22T11:33:52.249Z,44.48
2019-03-22T11:36:20.695Z,42.43
2019-03-22T11:38:49.143Z,44.03
2019-03-22T11:41:17.597Z,40.55
2019-03-22T11:43:46.040Z,41.98
2019-03-22T11:46:14.502Z,42.58
2019-03-22T11:48:42.941Z,44.23
2019-03-22T11:51:11.382Z,43.15
2019-03-22T11:53:39.828Z,45.15
2019-03-22T11:56:09.487Z,40.92
2019-03-22T11:58:38.014Z,42.35
2019-03-22T12:01:06.537Z,41.20
2019-03-22T12:03:34.995Z,42.00
2019-03-22T12:06:03.602Z,42.23
2019-03-22T12:08:32.059Z,41.83
2019-03-22T12:11:00.491Z,36.45
2019-03-22T12:13:28.929Z,35.43
2019-03-22T12:15:57.397Z,34.25
2019-03-22T12:18:25.847Z,35.10
2019-03-22T12:20:56.460Z,35.83
2019-03-22T12:23:24.446Z,36.70
2019-03-22T12:25:53.960Z,35.48
2019-03-22T12:28:22.399Z,37.75
2019-03-22T12:30:52.304Z,38.33
2019-03-22T12:33:20.747Z,34.67
2019-03-22T12:35:49.195Z,33.80
2019-03-22T12:38:19.165Z,35.43
2019-03-22T12:40:47.850Z,33.63
2019-03-22T12:43:16.311Z,36.30
2019-03-22T12:45:44.773Z,34.30
2019-03-22T12:48:13.266Z,34.20
2019-03-22T12:50:41.719Z,34.27
2019-03-22T12:53:12.945Z,33.02
2019-03-22T12:55:41.391Z,31.37
2019-03-22T12:58:09.855Z,31.27
2019-03-22T13:00:39.208Z,32.55
2019-03-22T13:03:07.672Z,31.82
2019-03-22T13:05:36.123Z,31.85
2019-03-22T13:08:04.646Z,32.60
2019-03-22T13:10:36.154Z,30.37
2019-03-22T13:13:04.608Z,29.57
2019-03-22T13:15:33.050Z,28.87
2019-03-22T13:18:01.506Z,29.72
2019-03-22T13:20:29.956Z,28.62
2019-03-22T13:22:58.401Z,28.60
2019-03-22T13:25:26.864Z,27.73
2019-03-22T13:27:55.325Z,29.37
2019-03-22T13:30:32.294Z,28.50
2019-03-22T13:33:00.748Z,30.40
2019-03-22T13:35:29.198Z,27.90
2019-03-22T13:37:57.643Z,27.85
2019-03-22T13:40:26.107Z,26.12
2019-03-22T13:42:54.873Z,25.70
2019-03-22T13:45:23.318Z,22.98
2019-03-22T13:47:51.776Z,22.25
2019-03-22T13:50:20.307Z,19.35
2019-03-22T13:52:48.770Z,19.77
2019-03-22T13:55:17.290Z,19.15
2019-03-22T13:57:45.738Z,20.52
2019-03-22T14:00:18.255Z,20.30
2019-03-22T14:02:46.793Z,21.17
2019-03-22T14:05:15.327Z,22.40
2019-03-22T14:07:43.796Z,20.05
2019-03-22T14:10:20.739Z,21.48
2019-03-22T14:12:49.182Z,22.02
2019-03-22T14:15:17.672Z,21.60
2019-03-22T14:17:46.132Z,22.48
2019-03-22T14:20:14.596Z,22.27
2019-03-22T14:22:43.034Z,21.00
2019-03-22T14:25:11.504Z,22.22
2019-03-22T14:27:39.942Z,21.68
2019-03-22T14:30:09.122Z,20.45
2019-03-22T14:32:37.579Z,19.57
2019-03-22T14:35:08.063Z,21.20
2019-03-22T14:37:36.516Z,20.55
2019-03-22T14:40:06.666Z,18.90
2019-03-22T14:42:35.121Z,19.85
2019-03-22T14:45:05.903Z,20.25
2019-03-22T14:47:34.355Z,19.92
2019-03-22T14:50:02.816Z,19.17
2019-03-22T14:52:31.255Z,19.07
2019-03-22T14:54:59.706Z,19.85
2019-03-22T14:57:28.158Z,20.05
2019-03-22T14:59:59.157Z,18.30
2019-03-22T15:02:26.789Z,19.23
2019-03-22T15:04:55.227Z,18.82
2019-03-22T15:07:23.678Z,15.70
2019-03-22T15:09:52.130Z,14.78
2019-03-22T15:12:20.576Z,13.90
2019-03-22T15:15:05.610Z,14.50
2019-03-22T15:17:51.861Z,14.50
2019-03-22T15:20:39.867Z,14.73
2019-03-22T15:23:13.492Z,15.70
2019-03-22T15:25:46.699Z,12.65
2019-03-22T15:28:22.385Z,13.83
2019-03-22T15:30:54.442Z,14.58
2019-03-22T15:33:38.521Z,15.30
2019-03-22T15:36:08.757Z,14.45
2019-03-22T15:38:57.087Z,14.40
2019-03-22T15:41:25.646Z,13.85
2019-03-22T15:43:54.151Z,12.95
2019-03-22T15:46:22.642Z,13.60
2019-03-22T15:48:51.090Z,13.13
2019-03-22T15:51:19.547Z,13.22
2019-03-22T15:53:47.999Z,14.18
2019-03-22T15:56:17.994Z,13.60
2019-03-22T15:58:46.460Z,13.75
2019-03-22T16:01:14.918Z,14.07
2019-03-22T16:03:44.479Z,13.88
2019-03-22T16:06:13.293Z,13.75
2019-03-22T16:08:41.755Z,15.95
2019-03-22T16:11:10.214Z,14.68
2019-03-22T16:13:38.694Z,13.75
2019-03-22T16:16:09.362Z,13.88
2019-03-22T16:18:38.000Z,14.30
2019-03-22T16:21:07.024Z,13.15
2019-03-22T16:23:35.467Z,13.25
2019-03-22T16:26:03.912Z,12.20
2019-03-22T16:28:32.360Z,12.18
2019-03-22T16:31:00.799Z,12.05
2019-03-22T16:33:29.242Z,12.05
2019-03-22T16:35:59.219Z,10.93
2019-03-22T16:38:29.327Z,11.20
2019-03-22T16:40:57.768Z,10.35
2019-03-22T16:43:26.218Z,10.85
2019-03-22T16:45:54.676Z,11.50
2019-03-22T16:48:23.112Z,10.25
2019-03-22T16:50:52.358Z,12.35
2019-03-22T16:53:20.806Z,11.25
2019-03-22T16:55:49.413Z,11.90
2019-03-22T16:58:17.960Z,11.57
2019-03-22T17:00:46.412Z,12.00
2019-03-22T17:03:14.846Z,11.90
2019-03-22T17:05:43.303Z,12.05
2019-03-22T17:08:11.763Z,13.00
2019-03-22T17:10:40.274Z,13.20
2019-03-22T17:13:08.723Z,13.10
2019-03-22T17:15:37.166Z,13.72
2019-03-22T17:18:05.982Z,13.38
2019-03-22T17:20:35.610Z,13.78
2019-03-22T17:23:04.116Z,13.60
2019-03-22T17:25:33.290Z,13.28
2019-03-22T17:28:01.752Z,15.08
2019-03-22T17:30:31.848Z,13.70
2019-03-22T17:33:00.292Z,13.90
2019-03-22T17:35:28.740Z,14.68
2019-03-22T17:37:57.186Z,13.85
2019-03-22T17:40:25.640Z,13.83
2019-03-22T17:42:54.074Z,13.05
2019-03-22T17:45:22.598Z,15.35
2019-03-22T17:47:51.039Z,14.80
2019-03-22T17:50:19.936Z,14.38
2019-03-22T17:52:48.390Z,13.40
2019-03-22T17:55:16.905Z,14.38
2019-03-22T17:57:45.338Z,15.08
2019-03-22T18:00:18.146Z,16.10
2019-03-22T18:02:46.588Z,16.00
2019-03-22T18:05:15.313Z,16.20
2019-03-22T18:07:43.742Z,15.93
2019-03-22T18:10:12.736Z,16.35
2019-03-22T18:12:42.706Z,14.55
2019-03-22T18:15:12.799Z,16.00
2019-03-22T18:17:41.250Z,15.20
2019-03-22T18:20:12.199Z,16.35
2019-03-22T18:22:40.655Z,17.40
2019-03-22T18:25:10.547Z,16.12
2019-03-22T18:27:39.019Z,16.82
2019-03-22T18:30:12.115Z,16.70
2019-03-22T18:32:40.561Z,16.07
2019-03-22T18:35:09.856Z,16.90
2019-03-22T18:37:38.299Z,16.50
2019-03-22T18:40:12.034Z,25.70
2019-03-22T18:42:42.136Z,34.35
2019-03-22T18:45:14.357Z,30.27
2019-03-22T18:47:43.089Z,29.98
2019-03-22T18:50:12.458Z,35.65
2019-03-22T18:52:41.042Z,34.27
2019-03-22T18:55:10.028Z,29.48
2019-03-22T18:57:38.475Z,27.82
2019-03-22T19:00:09.159Z,26.45
2019-03-22T19:02:37.623Z,27.73
2019-03-22T19:05:07.706Z,26.77
2019-03-22T19:07:38.102Z,27.25
2019-03-22T19:10:09.467Z,29.05
2019-03-22T19:12:37.911Z,31.20
2019-03-22T19:15:09.111Z,29.25
2019-03-22T19:17:38.827Z,27.98
2019-03-22T19:20:11.602Z,22.37
2019-03-22T19:22:40.043Z,21.75
2019-03-22T19:25:09.863Z,19.65
2019-03-22T19:27:39.485Z,19.00
2019-03-22T19:30:15.518Z,20.25
2019-03-22T19:32:43.953Z,21.07
2019-03-22T19:35:12.841Z,19.90
2019-03-22T19:37:42.837Z,20.48
2019-03-22T19:40:15.693Z,19.60
2019-03-22T19:42:44.219Z,20.12
2019-03-22T19:45:14.205Z,18.73
2019-03-22T19:47:42.944Z,18.52
2019-03-22T19:50:13.666Z,22.20
2019-03-22T19:52:48.248Z,20.35
2019-03-22T19:55:16.682Z,20.37
2019-03-22T19:57:45.143Z,20.35
2019-03-22T20:00:19.030Z,29.82
2019-03-22T20:02:51.577Z,29.95
2019-03-22T20:05:29.080Z,39.50
2019-03-22T20:07:57.999Z,39.25
2019-03-22T20:10:26.433Z,35.85
2019-03-22T20:12:55.139Z,41.15
2019-03-22T20:15:25.387Z,39.73
2019-03-22T20:17:53.814Z,39.35
2019-03-22T20:20:23.802Z,35.92
2019-03-22T20:22:52.247Z,32.25
2019-03-22T20:25:21.824Z,35.33
2019-03-22T20:27:50.276Z,32.23
2019-03-22T20:30:19.457Z,31.50
2019-03-22T20:32:47.941Z,32.45
2019-03-22T20:35:17.165Z,29.92
2019-03-22T20:37:45.720Z,33.08
2019-03-22T20:40:19.087Z,34.27
2019-03-22T20:42:47.550Z,34.73
2019-03-22T20:45:24.164Z,32.58
2019-03-22T20:47:46.779Z,34.63
2019-03-22T20:50:15.362Z,35.05
2019-03-22T20:52:43.801Z,34.50
2019-03-22T20:55:12.240Z,34.53
2019-03-22T20:57:40.679Z,40.23
2019-03-22T21:00:12.543Z,36.85
2019-03-22T21:02:40.974Z,39.00
2019-03-22T21:05:09.986Z,41.77
2019-03-22T21:07:38.463Z,39.25
2019-03-22T21:10:09.509Z,46.92
2019-03-22T21:12:37.950Z,48.33
2019-03-22T21:15:07.998Z,48.10
2019-03-22T21:17:36.512Z,54.48
2019-03-22T21:20:10.047Z,52.73
2019-03-22T21:22:38.497Z,58.73
2019-03-22T21:25:07.883Z,61.70
2019-03-22T21:28:00.805Z,61.40
2019-03-22T21:30:29.250Z,50.78
2019-03-22T21:32:57.706Z,44.30
2019-03-22T21:35:36.694Z,38.25
2019-03-22T21:37:56.315Z,34.73
2019-03-22T21:40:24.754Z,36.65
2019-03-22T21:42:53.201Z,36.20
2019-03-22T21:45:21.639Z,39.55
2019-03-22T21:47:50.087Z,41.35
2019-03-22T21:50:18.532Z,42.27
2019-03-22T21:52:46.985Z,42.53
2019-03-22T21:55:15.415Z,40.70
2019-03-22T21:57:43.862Z,42.13
2019-03-22T22:00:13.759Z,43.83
2019-03-22T22:02:42.204Z,43.33
2019-03-22T22:05:10.651Z,46.00
2019-03-22T22:07:39.671Z,49.55
2019-03-22T22:10:09.416Z,49.48
2019-03-22T22:12:38.204Z,48.65
2019-03-22T22:15:09.801Z,54.65
2019-03-22T22:17:40.363Z,58.55
2019-03-22T22:20:09.045Z,56.73
2019-03-22T22:22:37.579Z,60.20
2019-03-22T22:25:07.682Z,63.02
2019-03-22T22:27:36.185Z,62.60
2019-03-22T22:30:09.939Z,62.93
2019-03-22T22:32:38.388Z,65.08
2019-03-22T22:35:08.726Z,69.03
2019-03-22T22:37:37.179Z,65.62
2019-03-22T22:40:10.926Z,68.00
2019-03-22T22:42:39.367Z,64.10
2019-03-22T22:45:10.205Z,65.20
2019-03-22T22:47:40.425Z,62.00
2019-03-22T22:50:10.921Z,62.20
2019-03-22T22:52:39.361Z,55.80
2019-03-22T22:55:08.839Z,60.30
2019-03-22T22:57:37.289Z,62.48
2019-03-22T23:00:16.040Z,62.65
2019-03-22T23:02:44.734Z,65.50
2019-03-22T23:05:13.166Z,66.00
2019-03-22T23:07:42.928Z,67.87
2019-03-22T23:10:12.812Z,67.25
2019-03-22T23:12:41.855Z,69.15
2019-03-22T23:15:10.945Z,69.47
2019-03-22T23:17:39.375Z,71.62
2019-03-22T23:20:09.359Z,71.53
2019-03-22T23:22:37.790Z,70.95
2019-03-22T23:25:07.680Z,69.60
2019-03-22T23:27:38.507Z,72.05
2019-03-22T23:30:08.982Z,67.78
2019-03-22T23:32:37.429Z,69.27
2019-03-22T23:35:07.114Z,68.57
2019-03-22T23:37:35.569Z,70.00
2019-03-22T23:40:05.353Z,67.97
2019-03-22T23:42:33.785Z,65.35
2019-03-22T23:45:02.247Z,67.37
2019-03-22T23:47:30.691Z,69.32
2019-03-22T23:49:59.139Z,66.55
2019-03-22T23:52:27.588Z,69.53
2019-03-22T23:54:56.029Z,68.20
2019-03-22T23:57:24.476Z,65.72
2019-03-22T23:59:52.913Z,69.50
